createdAt,value
2018-09-07T00:00:02.415Z,15.5
2018-09-07T00:15:02.740Z,15.6
2018-09-07T00:30:03.115Z,15.4
2018-09-07T00:45:02.458Z,15.4
2018-09-07T01:00:02.789Z,15.4
2018-09-07T01:15:03.145Z,15.4
2018-09-07T01:30:02.610Z,15.6
2018-09-07T01:45:02.929Z,15.6
2018-09-07T02:00:03.338Z,15.4
2018-09-07T02:15:02.643Z,15.2
2018-09-07T02:30:03.022Z,15.2
2018-09-07T02:45:02.326Z,15.1
2018-09-07T03:00:02.619Z,15.1
2018-09-07T03:15:02.952Z,15.2
2018-09-07T03:30:02.330Z,15.1
2018-09-07T03:45:02.618Z,14.9
2018-09-07T04:00:02.911Z,15.1
2018-09-07T04:15:03.209Z,15.6
2018-09-07T04:30:02.597Z,16.1
2018-09-07T04:45:02.924Z,16.1
2018-09-07T05:00:03.247Z,16.2
2018-09-07T05:15:02.598Z,16.3
2018-09-07T05:30:02.998Z,16.2
2018-09-07T05:45:02.450Z,16.4
2018-09-07T06:00:03.077Z,16.6
2018-09-07T06:15:02.445Z,16.6
2018-09-07T06:30:02.901Z,16.7
2018-09-07T06:45:03.224Z,16.8
2018-09-07T07:00:02.529Z,16.8
2018-09-07T07:15:02.859Z,16.9
2018-09-07T07:30:03.239Z,17.1
2018-09-07T07:45:02.595Z,17.1
2018-09-07T08:00:02.980Z,17.2
2018-09-07T08:15:02.315Z,17.4
2018-09-07T08:30:02.853Z,17.5
2018-09-07T08:45:03.281Z,17.7
2018-09-07T09:00:02.619Z,18
2018-09-07T09:15:02.915Z,18
2018-09-07T09:30:02.315Z,18.2
2018-09-07T09:45:02.604Z,18.8
2018-09-07T10:00:02.930Z,19.1
2018-09-07T10:15:03.280Z,19.4
2018-09-07T10:30:02.690Z,20.1
2018-09-07T10:45:03.026Z,20.8
2018-09-07T11:00:02.392Z,21.4
2018-09-07T11:15:02.740Z,21.9
2018-09-07T11:30:03.129Z,20.4
2018-09-07T11:45:02.478Z,19.3
2018-09-07T12:00:02.821Z,19.1
2018-09-07T12:15:03.165Z,19
2018-09-07T12:30:02.649Z,19
2018-09-07T12:45:02.994Z,19
2018-09-07T13:00:02.306Z,19.1
2018-09-07T13:15:02.617Z,19.8
2018-09-07T13:30:03.015Z,21.4
2018-09-07T13:45:03.228Z,22.2
2018-09-07T14:00:02.537Z,22.8
2018-09-07T14:15:02.863Z,22.8
2018-09-07T14:30:03.291Z,22
2018-09-07T14:45:02.622Z,21.3
2018-09-07T15:00:02.938Z,20.8
2018-09-07T15:15:03.225Z,18.7
2018-09-07T15:30:02.599Z,18.5
2018-09-07T15:45:02.952Z,18.8
2018-09-07T16:00:02.298Z,18.6
2018-09-07T16:15:02.649Z,18.2
2018-09-07T16:30:03.050Z,18
2018-09-07T16:45:02.408Z,17.8
2018-09-07T17:00:02.765Z,17.8
2018-09-07T17:15:03.199Z,17.8
2018-09-07T17:30:02.597Z,17.7
2018-09-07T17:45:02.935Z,17.6
2018-09-07T18:00:03.236Z,17.4
2018-09-07T18:15:02.586Z,17.1
2018-09-07T18:30:03.004Z,16.9
2018-09-07T18:45:02.319Z,17
2018-09-07T19:00:02.612Z,16.8
2018-09-07T19:15:02.968Z,16.7
2018-09-07T19:30:02.395Z,16.6
2018-09-07T19:45:02.695Z,16.8
2018-09-07T20:00:03.000Z,16.7
2018-09-07T20:15:02.306Z,16.8
2018-09-07T20:30:02.707Z,16.8
2018-09-07T20:45:03.036Z,16.7
2018-09-07T21:00:02.418Z,16.4
2018-09-07T21:15:02.725Z,16.4
2018-09-07T21:30:03.102Z,16.2
2018-09-07T21:45:02.399Z,16.1
2018-09-07T22:00:02.759Z,16.1
2018-09-07T22:15:03.102Z,16.1
2018-09-07T22:30:02.596Z,16.1
2018-09-07T22:45:02.910Z,16.1
2018-09-07T23:00:03.196Z,15.9
2018-09-07T23:15:02.565Z,15.9
2018-09-07T23:30:03.041Z,15.9
2018-09-07T23:45:02.451Z,16
